Disclaimer

Please do not use the information listed here in-flight or in-navigation, as they are not provided to us by the airports but are provided by volunteers, so they might be outdated.

Search


Regions


Airport information page

Radio informations:
PERPIGNAN TWR - 121.9 MHz
PERPIGNAN ATIS - 127.875 MHz
PERPIGNAN APP - 120.75 MHz

Airport informations:
Latitude: 42° 44' 25.59" N
Longitude: 002° 52' 14.40" E
Elevation: 144 feet - 44 meters
Operating hours: Remarks
Operating agency: Civil government, landing fees and diplomatic clearance may be required
Timezone: UTC+1(+2DT) - Last Sunday in March to last Sunday in October
Fuel: Jet A1, without icing nhibitor.

100/130 MIL Spec, low lead, aviation gasoline (BLUE)

Runway information:
13/31 - 4150 x 66 feet< - >1265 x 20 meters
15/33 - 8202 x 148 feet< - >2500 x 45 meters

Recent METARs:
LFMP 192100Z AUTO 28003KT 9999 BKN017 BKN052 08/06 Q1001 NOSIG
LFMP 192130Z AUTO 26003KT 210V280 9999 OVC017 08/06 Q1001 TEMPO 4000 BR BKN005
LFMP 192200Z AUTO 00000KT 9999 BKN016 BKN023 BKN044 09/06 Q1001

Airport on the map: